sensor_id;sensor_type;location;lat;lon;timestamp;P1;durP1;ratioP1;P2;durP2;ratioP2
37311;SDS011;23197;53.912;9.138;2022-07-29T00:01:19;5.17;;;2.10;;
37311;SDS011;23197;53.912;9.138;2022-07-29T00:03:45;4.17;;;2.00;;
37311;SDS011;23197;53.912;9.138;2022-07-29T00:06:10;4.03;;;1.97;;
37311;SDS011;23197;53.912;9.138;2022-07-29T00:08:36;3.90;;;1.93;;
37311;SDS011;23197;53.912;9.138;2022-07-29T00:11:01;4.10;;;2.00;;
37311;SDS011;23197;53.912;9.138;2022-07-29T00:13:27;4.87;;;2.10;;
37311;SDS011;23197;53.912;9.138;2022-07-29T00:15:52;3.53;;;1.83;;
37311;SDS011;23197;53.912;9.138;2022-07-29T00:18:18;5.50;;;2.17;;
37311;SDS011;23197;53.912;9.138;2022-07-29T00:20:43;5.20;;;2.30;;
37311;SDS011;23197;53.912;9.138;2022-07-29T00:23:08;4.93;;;2.70;;
37311;SDS011;23197;53.912;9.138;2022-07-29T00:25:34;4.60;;;2.57;;
37311;SDS011;23197;53.912;9.138;2022-07-29T00:27:59;3.67;;;2.20;;
37311;SDS011;23197;53.912;9.138;2022-07-29T00:30:25;4.73;;;2.30;;
37311;SDS011;23197;53.912;9.138;2022-07-29T00:32:50;4.47;;;2.10;;
37311;SDS011;23197;53.912;9.138;2022-07-29T00:35:16;3.57;;;2.10;;
37311;SDS011;23197;53.912;9.138;2022-07-29T00:40:25;5.07;;;1.93;;
37311;SDS011;23197;53.912;9.138;2022-07-29T00:42:51;5.30;;;2.10;;
37311;SDS011;23197;53.912;9.138;2022-07-29T00:45:17;4.47;;;2.00;;
37311;SDS011;23197;53.912;9.138;2022-07-29T00:47:43;3.77;;;2.17;;
37311;SDS011;23197;53.912;9.138;2022-07-29T00:50:09;6.10;;;2.47;;
37311;SDS011;23197;53.912;9.138;2022-07-29T00:52:37;5.83;;;2.30;;
37311;SDS011;23197;53.912;9.138;2022-07-29T00:55:04;4.00;;;2.37;;
37311;SDS011;23197;53.912;9.138;2022-07-29T00:57:31;4.33;;;2.37;;
37311;SDS011;23197;53.912;9.138;2022-07-29T00:59:58;5.60;;;2.27;;
37311;SDS011;23197;53.912;9.138;2022-07-29T01:02:23;4.17;;;1.80;;
37311;SDS011;23197;53.912;9.138;2022-07-29T01:04:49;6.47;;;2.33;;
37311;SDS011;23197;53.912;9.138;2022-07-29T01:07:15;3.90;;;1.87;;
37311;SDS011;23197;53.912;9.138;2022-07-29T01:09:42;6.37;;;2.10;;
37311;SDS011;23197;53.912;9.138;2022-07-29T01:12:10;4.60;;;2.00;;
37311;SDS011;23197;53.912;9.138;2022-07-29T01:14:38;4.53;;;1.90;;
37311;SDS011;23197;53.912;9.138;2022-07-29T01:28:20;4.03;;;2.27;;
37311;SDS011;23197;53.912;9.138;2022-07-29T01:30:56;4.53;;;2.40;;
37311;SDS011;23197;53.912;9.138;2022-07-29T01:33:23;5.30;;;2.37;;
37311;SDS011;23197;53.912;9.138;2022-07-29T01:36:11;4.03;;;2.40;;
37311;SDS011;23197;53.912;9.138;2022-07-29T01:38:39;5.90;;;2.90;;
37311;SDS011;23197;53.912;9.138;2022-07-29T01:41:12;5.07;;;2.80;;
37311;SDS011;23197;53.912;9.138;2022-07-29T01:43:42;6.68;;;3.00;;
37311;SDS011;23197;53.912;9.138;2022-07-29T01:46:21;4.67;;;2.80;;
37311;SDS011;23197;53.912;9.138;2022-07-29T01:48:53;5.23;;;2.70;;
37311;SDS011;23197;53.912;9.138;2022-07-29T01:51:29;5.80;;;3.20;;
37311;SDS011;23197;53.912;9.138;2022-07-29T01:54:20;5.70;;;3.10;;
37311;SDS011;23197;53.912;9.138;2022-07-29T01:56:43;5.13;;;2.90;;
37311;SDS011;23197;53.912;9.138;2022-07-29T01:59:12;7.53;;;3.23;;
37311;SDS011;23197;53.912;9.138;2022-07-29T02:01:38;6.80;;;3.10;;
37311;SDS011;23197;53.912;9.138;2022-07-29T02:04:06;4.60;;;3.03;;
37311;SDS011;23197;53.912;9.138;2022-07-29T02:06:34;5.63;;;3.20;;
37311;SDS011;23197;53.912;9.138;2022-07-29T02:09:03;8.80;;;3.70;;
37311;SDS011;23197;53.912;9.138;2022-07-29T02:11:31;5.23;;;3.30;;
37311;SDS011;23197;53.912;9.138;2022-07-29T02:13:58;5.60;;;3.07;;
37311;SDS011;23197;53.912;9.138;2022-07-29T02:16:26;5.87;;;2.70;;
37311;SDS011;23197;53.912;9.138;2022-07-29T02:18:55;5.53;;;3.33;;
37311;SDS011;23197;53.912;9.138;2022-07-29T02:21:24;5.47;;;2.83;;
37311;SDS011;23197;53.912;9.138;2022-07-29T02:23:52;4.43;;;2.90;;
37311;SDS011;23197;53.912;9.138;2022-07-29T02:26:20;5.43;;;3.20;;
37311;SDS011;23197;53.912;9.138;2022-07-29T02:28:50;7.10;;;3.20;;
37311;SDS011;23197;53.912;9.138;2022-07-29T02:31:19;5.13;;;3.00;;
37311;SDS011;23197;53.912;9.138;2022-07-29T02:33:47;5.10;;;3.00;;
37311;SDS011;23197;53.912;9.138;2022-07-29T02:36:14;6.00;;;3.37;;
37311;SDS011;23197;53.912;9.138;2022-07-29T02:38:42;5.63;;;3.17;;
37311;SDS011;23197;53.912;9.138;2022-07-29T02:41:30;6.23;;;3.50;;
37311;SDS011;23197;53.912;9.138;2022-07-29T02:44:02;6.00;;;3.10;;
37311;SDS011;23197;53.912;9.138;2022-07-29T02:46:34;6.63;;;3.27;;
37311;SDS011;23197;53.912;9.138;2022-07-29T02:51:53;7.87;;;3.53;;
37311;SDS011;23197;53.912;9.138;2022-07-29T02:54:29;5.50;;;3.20;;
37311;SDS011;23197;53.912;9.138;2022-07-29T02:57:05;5.03;;;3.00;;
37311;SDS011;23197;53.912;9.138;2022-07-29T02:59:36;5.77;;;3.20;;
37311;SDS011;23197;53.912;9.138;2022-07-29T03:02:02;5.17;;;3.30;;
37311;SDS011;23197;53.912;9.138;2022-07-29T03:04:30;5.10;;;3.10;;
37311;SDS011;23197;53.912;9.138;2022-07-29T03:06:58;4.77;;;2.97;;
37311;SDS011;23197;53.912;9.138;2022-07-29T03:09:25;6.57;;;3.30;;
37311;SDS011;23197;53.912;9.138;2022-07-29T03:11:53;5.37;;;2.53;;
37311;SDS011;23197;53.912;9.138;2022-07-29T03:14:20;6.60;;;3.00;;
37311;SDS011;23197;53.912;9.138;2022-07-29T03:16:48;10.47;;;3.00;;
37311;SDS011;23197;53.912;9.138;2022-07-29T03:19:14;4.63;;;2.93;;
37311;SDS011;23197;53.912;9.138;2022-07-29T03:21:40;5.37;;;2.97;;
37311;SDS011;23197;53.912;9.138;2022-07-29T03:24:05;6.63;;;3.20;;
37311;SDS011;23197;53.912;9.138;2022-07-29T03:26:31;5.60;;;3.10;;
37311;SDS011;23197;53.912;9.138;2022-07-29T03:28:57;5.90;;;3.33;;
37311;SDS011;23197;53.912;9.138;2022-07-29T03:31:22;6.90;;;3.37;;
37311;SDS011;23197;53.912;9.138;2022-07-29T03:33:48;7.60;;;3.43;;
37311;SDS011;23197;53.912;9.138;2022-07-29T03:36:13;6.53;;;3.80;;
37311;SDS011;23197;53.912;9.138;2022-07-29T03:38:39;5.20;;;3.20;;
37311;SDS011;23197;53.912;9.138;2022-07-29T03:41:09;5.60;;;3.10;;
37311;SDS011;23197;53.912;9.138;2022-07-29T03:43:37;5.83;;;3.03;;
37311;SDS011;23197;53.912;9.138;2022-07-29T03:46:06;6.40;;;3.17;;
37311;SDS011;23197;53.912;9.138;2022-07-29T03:48:34;6.53;;;3.20;;
37311;SDS011;23197;53.912;9.138;2022-07-29T03:51:05;4.73;;;2.70;;
37311;SDS011;23197;53.912;9.138;2022-07-29T03:53:31;5.50;;;3.33;;
37311;SDS011;23197;53.912;9.138;2022-07-29T03:55:58;5.93;;;3.07;;
37311;SDS011;23197;53.912;9.138;2022-07-29T03:58:26;6.73;;;2.73;;
37311;SDS011;23197;53.912;9.138;2022-07-29T04:00:53;5.37;;;2.93;;
37311;SDS011;23197;53.912;9.138;2022-07-29T04:03:20;7.23;;;3.30;;
37311;SDS011;23197;53.912;9.138;2022-07-29T04:05:59;7.50;;;3.57;;
37311;SDS011;23197;53.912;9.138;2022-07-29T04:08:27;5.60;;;3.07;;
37311;SDS011;23197;53.912;9.138;2022-07-29T04:10:53;7.97;;;3.30;;
37311;SDS011;23197;53.912;9.138;2022-07-29T04:13:19;8.90;;;2.90;;
37311;SDS011;23197;53.912;9.138;2022-07-29T04:15:45;5.67;;;2.90;;
37311;SDS011;23197;53.912;9.138;2022-07-29T04:18:11;6.07;;;3.00;;
37311;SDS011;23197;53.912;9.138;2022-07-29T04:20:36;6.20;;;2.93;;
37311;SDS011;23197;53.912;9.138;2022-07-29T04:23:02;5.80;;;2.80;;
37311;SDS011;23197;53.912;9.138;2022-07-29T04:25:27;4.93;;;3.07;;
37311;SDS011;23197;53.912;9.138;2022-07-29T04:27:53;6.47;;;2.80;;
37311;SDS011;23197;53.912;9.138;2022-07-29T04:30:28;5.70;;;3.20;;
37311;SDS011;23197;53.912;9.138;2022-07-29T04:32:55;4.10;;;2.60;;
37311;SDS011;23197;53.912;9.138;2022-07-29T04:35:20;5.00;;;2.70;;
37311;SDS011;23197;53.912;9.138;2022-07-29T04:37:46;5.80;;;2.80;;
37311;SDS011;23197;53.912;9.138;2022-07-29T04:40:11;5.20;;;3.00;;
37311;SDS011;23197;53.912;9.138;2022-07-29T04:42:38;6.60;;;2.63;;
37311;SDS011;23197;53.912;9.138;2022-07-29T04:45:04;6.43;;;2.70;;
37311;SDS011;23197;53.912;9.138;2022-07-29T04:47:29;5.07;;;2.80;;
37311;SDS011;23197;53.912;9.138;2022-07-29T04:49:55;7.00;;;2.90;;
37311;SDS011;23197;53.912;9.138;2022-07-29T04:52:21;6.17;;;2.80;;
37311;SDS011;23197;53.912;9.138;2022-07-29T04:54:47;6.87;;;2.87;;
37311;SDS011;23197;53.912;9.138;2022-07-29T04:57:13;7.85;;;2.55;;
37311;SDS011;23197;53.912;9.138;2022-07-29T04:59:38;5.22;;;2.70;;
37311;SDS011;23197;53.912;9.138;2022-07-29T05:02:04;6.05;;;2.47;;
37311;SDS011;23197;53.912;9.138;2022-07-29T05:04:29;5.93;;;2.65;;
37311;SDS011;23197;53.912;9.138;2022-07-29T05:06:54;6.28;;;2.47;;
37311;SDS011;23197;53.912;9.138;2022-07-29T05:09:20;4.88;;;2.70;;
37311;SDS011;23197;53.912;9.138;2022-07-29T05:11:45;5.38;;;3.00;;
37311;SDS011;23197;53.912;9.138;2022-07-29T05:14:11;4.57;;;2.50;;
37311;SDS011;23197;53.912;9.138;2022-07-29T05:16:36;5.57;;;2.65;;
37311;SDS011;23197;53.912;9.138;2022-07-29T05:19:02;4.15;;;2.53;;
37311;SDS011;23197;53.912;9.138;2022-07-29T05:21:28;7.28;;;2.90;;
37311;SDS011;23197;53.912;9.138;2022-07-29T05:23:53;5.57;;;2.67;;
37311;SDS011;23197;53.912;9.138;2022-07-29T05:26:19;5.72;;;3.00;;
37311;SDS011;23197;53.912;9.138;2022-07-29T05:28:44;5.22;;;2.53;;
37311;SDS011;23197;53.912;9.138;2022-07-29T05:31:10;6.53;;;2.50;;
37311;SDS011;23197;53.912;9.138;2022-07-29T05:33:35;5.53;;;2.70;;
37311;SDS011;23197;53.912;9.138;2022-07-29T05:36:04;6.50;;;2.60;;
37311;SDS011;23197;53.912;9.138;2022-07-29T05:38:32;5.88;;;2.30;;
37311;SDS011;23197;53.912;9.138;2022-07-29T05:40:58;4.15;;;2.20;;
37311;SDS011;23197;53.912;9.138;2022-07-29T05:43:25;9.23;;;2.72;;
37311;SDS011;23197;53.912;9.138;2022-07-29T05:45:51;5.70;;;2.60;;
37311;SDS011;23197;53.912;9.138;2022-07-29T05:48:17;6.00;;;2.40;;
37311;SDS011;23197;53.912;9.138;2022-07-29T05:50:42;4.97;;;2.30;;
37311;SDS011;23197;53.912;9.138;2022-07-29T05:53:13;6.07;;;2.33;;
37311;SDS011;23197;53.912;9.138;2022-07-29T05:55:38;4.85;;;2.15;;
37311;SDS011;23197;53.912;9.138;2022-07-29T05:58:04;4.22;;;2.00;;
37311;SDS011;23197;53.912;9.138;2022-07-29T06:00:29;5.40;;;2.25;;
37311;SDS011;23197;53.912;9.138;2022-07-29T06:02:55;4.90;;;2.10;;
37311;SDS011;23197;53.912;9.138;2022-07-29T06:05:21;5.45;;;2.20;;
37311;SDS011;23197;53.912;9.138;2022-07-29T06:07:48;4.85;;;2.00;;
37311;SDS011;23197;53.912;9.138;2022-07-29T06:10:13;4.10;;;2.05;;
37311;SDS011;23197;53.912;9.138;2022-07-29T06:12:39;4.13;;;2.28;;
37311;SDS011;23197;53.912;9.138;2022-07-29T06:15:05;4.80;;;2.03;;
37311;SDS011;23197;53.912;9.138;2022-07-29T06:17:31;5.80;;;2.13;;
37311;SDS011;23197;53.912;9.138;2022-07-29T06:19:56;4.97;;;2.13;;
37311;SDS011;23197;53.912;9.138;2022-07-29T06:22:22;6.75;;;2.38;;
37311;SDS011;23197;53.912;9.138;2022-07-29T06:24:47;6.38;;;2.22;;
37311;SDS011;23197;53.912;9.138;2022-07-29T06:27:13;4.72;;;2.20;;
37311;SDS011;23197;53.912;9.138;2022-07-29T06:29:38;4.15;;;2.00;;
37311;SDS011;23197;53.912;9.138;2022-07-29T06:32:04;4.97;;;2.20;;
37311;SDS011;23197;53.912;9.138;2022-07-29T06:34:30;4.63;;;2.08;;
37311;SDS011;23197;53.912;9.138;2022-07-29T06:36:55;4.32;;;1.85;;
37311;SDS011;23197;53.912;9.138;2022-07-29T06:39:21;4.07;;;2.10;;
37311;SDS011;23197;53.912;9.138;2022-07-29T06:41:47;4.70;;;1.88;;
37311;SDS011;23197;53.912;9.138;2022-07-29T06:44:14;5.15;;;1.98;;
37311;SDS011;23197;53.912;9.138;2022-07-29T06:46:39;6.93;;;2.28;;
37311;SDS011;23197;53.912;9.138;2022-07-29T06:49:05;5.57;;;2.00;;
37311;SDS011;23197;53.912;9.138;2022-07-29T06:51:30;4.63;;;2.08;;
37311;SDS011;23197;53.912;9.138;2022-07-29T06:53:56;6.60;;;2.35;;
37311;SDS011;23197;53.912;9.138;2022-07-29T06:56:22;5.65;;;2.15;;
37311;SDS011;23197;53.912;9.138;2022-07-29T06:58:48;5.55;;;2.03;;
37311;SDS011;23197;53.912;9.138;2022-07-29T07:01:13;5.25;;;1.92;;
37311;SDS011;23197;53.912;9.138;2022-07-29T07:03:39;4.90;;;2.35;;
37311;SDS011;23197;53.912;9.138;2022-07-29T07:06:05;4.85;;;2.15;;
37311;SDS011;23197;53.912;9.138;2022-07-29T07:08:30;7.47;;;2.20;;
37311;SDS011;23197;53.912;9.138;2022-07-29T07:10:55;7.25;;;2.17;;
37311;SDS011;23197;53.912;9.138;2022-07-29T07:13:22;4.95;;;2.10;;
37311;SDS011;23197;53.912;9.138;2022-07-29T07:15:48;6.20;;;2.42;;
37311;SDS011;23197;53.912;9.138;2022-07-29T07:18:14;5.20;;;2.05;;
37311;SDS011;23197;53.912;9.138;2022-07-29T07:20:40;5.05;;;2.53;;
37311;SDS011;23197;53.912;9.138;2022-07-29T07:23:06;6.65;;;2.60;;
37311;SDS011;23197;53.912;9.138;2022-07-29T07:25:32;6.30;;;2.40;;
37311;SDS011;23197;53.912;9.138;2022-07-29T07:27:57;5.72;;;2.33;;
37311;SDS011;23197;53.912;9.138;2022-07-29T07:30:23;4.47;;;2.33;;
37311;SDS011;23197;53.912;9.138;2022-07-29T07:32:48;6.70;;;2.17;;
37311;SDS011;23197;53.912;9.138;2022-07-29T07:35:14;3.78;;;2.20;;
37311;SDS011;23197;53.912;9.138;2022-07-29T07:37:39;6.57;;;2.20;;
37311;SDS011;23197;53.912;9.138;2022-07-29T07:40:06;4.80;;;2.22;;
37311;SDS011;23197;53.912;9.138;2022-07-29T07:42:33;5.88;;;2.00;;
37311;SDS011;23197;53.912;9.138;2022-07-29T07:44:59;3.85;;;1.77;;
37311;SDS011;23197;53.912;9.138;2022-07-29T07:47:25;3.97;;;1.90;;
37311;SDS011;23197;53.912;9.138;2022-07-29T07:49:51;4.03;;;1.67;;
37311;SDS011;23197;53.912;9.138;2022-07-29T07:52:18;4.18;;;2.20;;
37311;SDS011;23197;53.912;9.138;2022-07-29T07:54:45;6.18;;;2.08;;
37311;SDS011;23197;53.912;9.138;2022-07-29T07:57:11;5.22;;;2.45;;
37311;SDS011;23197;53.912;9.138;2022-07-29T07:59:37;3.85;;;1.83;;
37311;SDS011;23197;53.912;9.138;2022-07-29T08:02:03;5.10;;;1.83;;
37311;SDS011;23197;53.912;9.138;2022-07-29T08:04:29;3.70;;;1.90;;
37311;SDS011;23197;53.912;9.138;2022-07-29T08:06:55;4.25;;;1.80;;
37311;SDS011;23197;53.912;9.138;2022-07-29T08:09:22;6.95;;;2.17;;
37311;SDS011;23197;53.912;9.138;2022-07-29T08:11:48;6.18;;;2.10;;
37311;SDS011;23197;53.912;9.138;2022-07-29T08:14:14;5.82;;;1.98;;
37311;SDS011;23197;53.912;9.138;2022-07-29T08:16:40;4.30;;;2.10;;
37311;SDS011;23197;53.912;9.138;2022-07-29T08:19:07;4.05;;;1.80;;
37311;SDS011;23197;53.912;9.138;2022-07-29T08:21:32;4.43;;;1.77;;
37311;SDS011;23197;53.912;9.138;2022-07-29T08:23:58;5.50;;;2.33;;
37311;SDS011;23197;53.912;9.138;2022-07-29T08:26:42;5.57;;;2.30;;
37311;SDS011;23197;53.912;9.138;2022-07-29T08:29:08;4.90;;;2.20;;
37311;SDS011;23197;53.912;9.138;2022-07-29T08:31:35;4.28;;;2.15;;
37311;SDS011;23197;53.912;9.138;2022-07-29T08:34:01;4.13;;;1.98;;
37311;SDS011;23197;53.912;9.138;2022-07-29T08:36:27;6.35;;;2.20;;
37311;SDS011;23197;53.912;9.138;2022-07-29T08:38:53;5.38;;;2.20;;
37311;SDS011;23197;53.912;9.138;2022-07-29T08:41:19;6.50;;;2.08;;
37311;SDS011;23197;53.912;9.138;2022-07-29T08:43:44;5.78;;;2.10;;
37311;SDS011;23197;53.912;9.138;2022-07-29T08:46:10;7.35;;;2.70;;
37311;SDS011;23197;53.912;9.138;2022-07-29T08:48:36;5.68;;;2.10;;
37311;SDS011;23197;53.912;9.138;2022-07-29T08:51:02;4.90;;;1.88;;
37311;SDS011;23197;53.912;9.138;2022-07-29T08:53:28;4.20;;;2.05;;
37311;SDS011;23197;53.912;9.138;2022-07-29T08:55:54;3.83;;;1.83;;
37311;SDS011;23197;53.912;9.138;2022-07-29T08:58:21;6.15;;;2.45;;
37311;SDS011;23197;53.912;9.138;2022-07-29T09:00:51;4.55;;;2.10;;
37311;SDS011;23197;53.912;9.138;2022-07-29T09:03:18;5.05;;;2.33;;
37311;SDS011;23197;53.912;9.138;2022-07-29T09:05:45;5.38;;;1.85;;
37311;SDS011;23197;53.912;9.138;2022-07-29T09:08:15;5.10;;;2.38;;
37311;SDS011;23197;53.912;9.138;2022-07-29T09:10:41;4.57;;;2.25;;
37311;SDS011;23197;53.912;9.138;2022-07-29T09:13:07;5.00;;;2.10;;
37311;SDS011;23197;53.912;9.138;2022-07-29T09:15:33;5.50;;;2.20;;
37311;SDS011;23197;53.912;9.138;2022-07-29T09:17:58;3.95;;;2.00;;
37311;SDS011;23197;53.912;9.138;2022-07-29T09:20:25;5.00;;;2.10;;
37311;SDS011;23197;53.912;9.138;2022-07-29T09:23:12;6.90;;;2.15;;
37311;SDS011;23197;53.912;9.138;2022-07-29T09:25:39;5.45;;;2.13;;
37311;SDS011;23197;53.912;9.138;2022-07-29T09:28:06;4.75;;;1.90;;
37311;SDS011;23197;53.912;9.138;2022-07-29T09:30:33;5.80;;;2.15;;
37311;SDS011;23197;53.912;9.138;2022-07-29T09:33:00;4.80;;;2.20;;
37311;SDS011;23197;53.912;9.138;2022-07-29T09:35:28;4.90;;;1.92;;
37311;SDS011;23197;53.912;9.138;2022-07-29T09:37:54;5.28;;;2.08;;
37311;SDS011;23197;53.912;9.138;2022-07-29T09:40:21;5.13;;;1.80;;
37311;SDS011;23197;53.912;9.138;2022-07-29T09:42:53;5.57;;;2.00;;
37311;SDS011;23197;53.912;9.138;2022-07-29T09:51:40;4.70;;;1.95;;
37311;SDS011;23197;53.912;9.138;2022-07-29T09:54:22;5.15;;;2.17;;
37311;SDS011;23197;53.912;9.138;2022-07-29T09:56:48;3.55;;;2.00;;
37311;SDS011;23197;53.912;9.138;2022-07-29T09:59:14;4.10;;;1.90;;
37311;SDS011;23197;53.912;9.138;2022-07-29T10:01:40;5.95;;;2.33;;
37311;SDS011;23197;53.912;9.138;2022-07-29T10:04:06;6.47;;;2.13;;
37311;SDS011;23197;53.912;9.138;2022-07-29T10:06:31;3.92;;;1.95;;
37311;SDS011;23197;53.912;9.138;2022-07-29T10:09:07;4.60;;;2.28;;
37311;SDS011;23197;53.912;9.138;2022-07-29T10:11:35;3.33;;;1.77;;
37311;SDS011;23197;53.912;9.138;2022-07-29T10:14:02;7.43;;;2.30;;
37311;SDS011;23197;53.912;9.138;2022-07-29T10:16:28;5.40;;;2.00;;
37311;SDS011;23197;53.912;9.138;2022-07-29T10:18:58;3.60;;;1.85;;
37311;SDS011;23197;53.912;9.138;2022-07-29T10:21:25;4.72;;;1.80;;
37311;SDS011;23197;53.912;9.138;2022-07-29T10:23:51;4.65;;;2.03;;
37311;SDS011;23197;53.912;9.138;2022-07-29T10:26:18;5.47;;;2.00;;
37311;SDS011;23197;53.912;9.138;2022-07-29T10:28:44;3.42;;;1.90;;
37311;SDS011;23197;53.912;9.138;2022-07-29T10:31:12;5.78;;;2.20;;
37311;SDS011;23197;53.912;9.138;2022-07-29T10:41:53;4.15;;;1.73;;
37311;SDS011;23197;53.912;9.138;2022-07-29T10:44:26;4.43;;;1.80;;
37311;SDS011;23197;53.912;9.138;2022-07-29T10:46:52;5.72;;;2.00;;
37311;SDS011;23197;53.912;9.138;2022-07-29T10:49:19;4.63;;;2.10;;
37311;SDS011;23197;53.912;9.138;2022-07-29T10:51:52;3.10;;;1.83;;
37311;SDS011;23197;53.912;9.138;2022-07-29T11:05:00;4.18;;;1.98;;
37311;SDS011;23197;53.912;9.138;2022-07-29T11:07:28;5.32;;;2.00;;
37311;SDS011;23197;53.912;9.138;2022-07-29T11:15:21;4.65;;;1.92;;
37311;SDS011;23197;53.912;9.138;2022-07-29T11:23:17;3.95;;;2.00;;
37311;SDS011;23197;53.912;9.138;2022-07-29T11:25:43;4.38;;;1.70;;
37311;SDS011;23197;53.912;9.138;2022-07-29T11:28:10;3.47;;;1.60;;
37311;SDS011;23197;53.912;9.138;2022-07-29T11:30:50;3.50;;;1.92;;
37311;SDS011;23197;53.912;9.138;2022-07-29T11:33:29;6.55;;;1.98;;
37311;SDS011;23197;53.912;9.138;2022-07-29T11:38:51;5.38;;;2.22;;
37311;SDS011;23197;53.912;9.138;2022-07-29T11:49:22;3.33;;;1.83;;
37311;SDS011;23197;53.912;9.138;2022-07-29T11:51:53;3.90;;;1.80;;
37311;SDS011;23197;53.912;9.138;2022-07-29T11:54:26;4.85;;;1.88;;
37311;SDS011;23197;53.912;9.138;2022-07-29T11:56:59;4.15;;;2.10;;
37311;SDS011;23197;53.912;9.138;2022-07-29T11:59:25;5.15;;;1.95;;
37311;SDS011;23197;53.912;9.138;2022-07-29T12:01:58;4.25;;;2.03;;
37311;SDS011;23197;53.912;9.138;2022-07-29T12:04:25;4.60;;;1.90;;
37311;SDS011;23197;53.912;9.138;2022-07-29T12:06:53;4.53;;;2.20;;
37311;SDS011;23197;53.912;9.138;2022-07-29T12:09:20;3.63;;;2.10;;
37311;SDS011;23197;53.912;9.138;2022-07-29T12:11:46;6.53;;;2.30;;
37311;SDS011;23197;53.912;9.138;2022-07-29T12:14:28;4.47;;;2.20;;
37311;SDS011;23197;53.912;9.138;2022-07-29T12:16:55;4.65;;;2.10;;
37311;SDS011;23197;53.912;9.138;2022-07-29T12:19:22;5.72;;;2.30;;
37311;SDS011;23197;53.912;9.138;2022-07-29T12:21:48;2.88;;;1.60;;
37311;SDS011;23197;53.912;9.138;2022-07-29T12:24:18;6.72;;;2.20;;
37311;SDS011;23197;53.912;9.138;2022-07-29T12:26:51;5.00;;;2.00;;
37311;SDS011;23197;53.912;9.138;2022-07-29T12:29:18;3.42;;;1.70;;
37311;SDS011;23197;53.912;9.138;2022-07-29T12:31:44;4.75;;;2.10;;
37311;SDS011;23197;53.912;9.138;2022-07-29T12:34:11;3.28;;;1.83;;
37311;SDS011;23197;53.912;9.138;2022-07-29T12:36:38;3.88;;;2.00;;
37311;SDS011;23197;53.912;9.138;2022-07-29T12:39:05;4.45;;;1.85;;
37311;SDS011;23197;53.912;9.138;2022-07-29T12:41:31;2.95;;;1.70;;
37311;SDS011;23197;53.912;9.138;2022-07-29T12:43:57;4.80;;;1.90;;
37311;SDS011;23197;53.912;9.138;2022-07-29T12:46:23;5.10;;;1.80;;
37311;SDS011;23197;53.912;9.138;2022-07-29T12:48:52;3.97;;;1.85;;
37311;SDS011;23197;53.912;9.138;2022-07-29T12:51:36;4.85;;;1.63;;
37311;SDS011;23197;53.912;9.138;2022-07-29T12:54:04;4.40;;;2.00;;
37311;SDS011;23197;53.912;9.138;2022-07-29T12:56:39;6.35;;;1.52;;
37311;SDS011;23197;53.912;9.138;2022-07-29T12:59:19;5.85;;;1.85;;
37311;SDS011;23197;53.912;9.138;2022-07-29T13:01:47;5.10;;;1.83;;
37311;SDS011;23197;53.912;9.138;2022-07-29T13:04:27;3.88;;;1.50;;
37311;SDS011;23197;53.912;9.138;2022-07-29T13:06:58;5.70;;;1.98;;
37311;SDS011;23197;53.912;9.138;2022-07-29T13:09:35;3.72;;;1.77;;
37311;SDS011;23197;53.912;9.138;2022-07-29T13:12:07;4.93;;;1.63;;
37311;SDS011;23197;53.912;9.138;2022-07-29T13:14:45;3.38;;;1.95;;
37311;SDS011;23197;53.912;9.138;2022-07-29T13:19:45;5.07;;;1.80;;
37311;SDS011;23197;53.912;9.138;2022-07-29T13:22:13;3.65;;;1.70;;
37311;SDS011;23197;53.912;9.138;2022-07-29T13:24:53;4.30;;;1.73;;
37311;SDS011;23197;53.912;9.138;2022-07-29T13:27:23;6.63;;;1.90;;
37311;SDS011;23197;53.912;9.138;2022-07-29T13:29:50;4.53;;;1.80;;
37311;SDS011;23197;53.912;9.138;2022-07-29T13:32:17;3.20;;;1.63;;
37311;SDS011;23197;53.912;9.138;2022-07-29T13:34:43;5.32;;;1.60;;
37311;SDS011;23197;53.912;9.138;2022-07-29T13:37:09;3.03;;;1.60;;
37311;SDS011;23197;53.912;9.138;2022-07-29T13:39:34;3.85;;;1.65;;
37311;SDS011;23197;53.912;9.138;2022-07-29T13:42:00;4.75;;;1.90;;
37311;SDS011;23197;53.912;9.138;2022-07-29T13:44:26;4.75;;;1.88;;
37311;SDS011;23197;53.912;9.138;2022-07-29T13:46:51;3.25;;;1.70;;
37311;SDS011;23197;53.912;9.138;2022-07-29T13:49:17;5.32;;;1.70;;
37311;SDS011;23197;53.912;9.138;2022-07-29T13:51:42;4.18;;;1.60;;
37311;SDS011;23197;53.912;9.138;2022-07-29T13:54:08;5.05;;;1.50;;
37311;SDS011;23197;53.912;9.138;2022-07-29T13:56:33;3.95;;;1.63;;
37311;SDS011;23197;53.912;9.138;2022-07-29T13:58:59;3.33;;;1.65;;
37311;SDS011;23197;53.912;9.138;2022-07-29T14:01:25;4.28;;;1.60;;
37311;SDS011;23197;53.912;9.138;2022-07-29T14:03:51;4.72;;;1.67;;
37311;SDS011;23197;53.912;9.138;2022-07-29T14:06:16;3.42;;;1.60;;
37311;SDS011;23197;53.912;9.138;2022-07-29T14:08:42;3.13;;;1.45;;
37311;SDS011;23197;53.912;9.138;2022-07-29T14:11:08;3.75;;;1.33;;
37311;SDS011;23197;53.912;9.138;2022-07-29T14:13:33;5.28;;;1.60;;
37311;SDS011;23197;53.912;9.138;2022-07-29T14:15:59;3.78;;;1.63;;
37311;SDS011;23197;53.912;9.138;2022-07-29T14:18:24;3.83;;;1.70;;
37311;SDS011;23197;53.912;9.138;2022-07-29T14:20:50;5.25;;;1.58;;
37311;SDS011;23197;53.912;9.138;2022-07-29T14:23:16;4.93;;;1.50;;
37311;SDS011;23197;53.912;9.138;2022-07-29T14:25:42;3.95;;;1.50;;
37311;SDS011;23197;53.912;9.138;2022-07-29T14:28:07;5.90;;;1.70;;
37311;SDS011;23197;53.912;9.138;2022-07-29T14:30:32;3.72;;;1.58;;
37311;SDS011;23197;53.912;9.138;2022-07-29T14:32:58;5.72;;;1.60;;
37311;SDS011;23197;53.912;9.138;2022-07-29T14:35:23;3.33;;;1.60;;
37311;SDS011;23197;53.912;9.138;2022-07-29T14:37:49;3.30;;;1.48;;
37311;SDS011;23197;53.912;9.138;2022-07-29T14:40:14;3.45;;;1.60;;
37311;SDS011;23197;53.912;9.138;2022-07-29T14:42:40;4.22;;;1.50;;
37311;SDS011;23197;53.912;9.138;2022-07-29T14:45:06;3.78;;;1.55;;
37311;SDS011;23197;53.912;9.138;2022-07-29T14:47:34;3.45;;;1.67;;
37311;SDS011;23197;53.912;9.138;2022-07-29T14:50:00;3.03;;;1.58;;
37311;SDS011;23197;53.912;9.138;2022-07-29T14:52:25;5.80;;;1.50;;
37311;SDS011;23197;53.912;9.138;2022-07-29T14:54:51;3.30;;;1.58;;
37311;SDS011;23197;53.912;9.138;2022-07-29T14:57:16;4.15;;;1.60;;
37311;SDS011;23197;53.912;9.138;2022-07-29T14:59:41;4.20;;;1.50;;
37311;SDS011;23197;53.912;9.138;2022-07-29T15:02:07;5.78;;;1.58;;
37311;SDS011;23197;53.912;9.138;2022-07-29T15:04:33;4.20;;;1.83;;
37311;SDS011;23197;53.912;9.138;2022-07-29T15:06:59;5.88;;;1.83;;
37311;SDS011;23197;53.912;9.138;2022-07-29T15:09:24;3.45;;;1.60;;
37311;SDS011;23197;53.912;9.138;2022-07-29T15:11:50;2.55;;;1.40;;
37311;SDS011;23197;53.912;9.138;2022-07-29T15:14:15;7.43;;;1.95;;
37311;SDS011;23197;53.912;9.138;2022-07-29T15:16:41;4.13;;;1.63;;
37311;SDS011;23197;53.912;9.138;2022-07-29T15:19:07;4.45;;;1.60;;
37311;SDS011;23197;53.912;9.138;2022-07-29T15:21:33;2.70;;;1.45;;
37311;SDS011;23197;53.912;9.138;2022-07-29T15:23:59;5.07;;;1.75;;
37311;SDS011;23197;53.912;9.138;2022-07-29T15:26:24;4.38;;;1.50;;
37311;SDS011;23197;53.912;9.138;2022-07-29T15:28:50;3.53;;;1.50;;
37311;SDS011;23197;53.912;9.138;2022-07-29T15:31:16;4.22;;;1.85;;
37311;SDS011;23197;53.912;9.138;2022-07-29T15:33:42;3.50;;;1.70;;
37311;SDS011;23197;53.912;9.138;2022-07-29T15:36:07;5.20;;;1.60;;
37311;SDS011;23197;53.912;9.138;2022-07-29T15:38:33;6.53;;;1.92;;
37311;SDS011;23197;53.912;9.138;2022-07-29T15:40:58;3.95;;;1.80;;
37311;SDS011;23197;53.912;9.138;2022-07-29T15:43:24;6.18;;;1.98;;
37311;SDS011;23197;53.912;9.138;2022-07-29T15:45:49;2.70;;;1.60;;
37311;SDS011;23197;53.912;9.138;2022-07-29T15:48:34;5.10;;;1.95;;
37311;SDS011;23197;53.912;9.138;2022-07-29T15:51:03;7.28;;;2.20;;
37311;SDS011;23197;53.912;9.138;2022-07-29T15:53:29;4.80;;;1.95;;
37311;SDS011;23197;53.912;9.138;2022-07-29T15:55:54;3.75;;;1.83;;